Southampton, New Jersey
Current Conditions -  °F | °C
As of 4:54 PM on Tuesday 25 Nov 2014 (Local Time) from KVAY Reporting Station
Clear Clear  
Wind Chill: 11°   Ceiling: Unl
Heat Index: 11°   Visibility: 10mi
Dew Point: -1°   Wind: 0mph
Humidity: 44%   Direction: NA
Pressure: 30.05"   Gusts: NA
Location:  39.7955°N, 74.6301°W
Report Text: KVAY 252154Z AUTO 00000KT 10SM CLR 11/M01 A3005 RMK AO2 SLP177 T01061011
Loading
Personal Weather Stations






























Interactive Weather Map New forecast layout! Learn more

10-Day Weather Forecast

Advertisements
Track Severe Weather on mobile